createdAt,value
2023-03-26T00:00:54.354Z,9.35
2023-03-26T00:03:57.999Z,9.15
2023-03-26T00:07:00.674Z,9.08
2023-03-26T00:10:03.779Z,8.94
2023-03-26T00:13:07.378Z,9.05
2023-03-26T00:16:12.271Z,8.89
2023-03-26T00:19:14.362Z,8.52
2023-03-26T00:22:17.183Z,8.79
2023-03-26T00:25:20.562Z,8.91
2023-03-26T00:28:23.329Z,8.89
2023-03-26T00:31:27.319Z,8.54
2023-03-26T00:34:32.073Z,8.61
2023-03-26T00:37:34.088Z,8.53
2023-03-26T00:40:36.896Z,8.67
2023-03-26T00:43:39.354Z,8.21
2023-03-26T00:46:42.886Z,8.35
2023-03-26T00:49:46.971Z,8.55
2023-03-26T00:52:48.944Z,8.73
2023-03-26T00:55:50.912Z,9.01
2023-03-26T00:58:52.996Z,8.65
2023-03-26T01:01:58.511Z,8.90
2023-03-26T01:05:04.061Z,8.53
2023-03-26T01:08:18.404Z,8.54
2023-03-26T01:11:23.952Z,8.73
2023-03-26T01:14:29.084Z,9.11
2023-03-26T01:17:38.086Z,8.94
2023-03-26T01:20:46.767Z,8.97
2023-03-26T01:23:57.786Z,8.77
2023-03-26T01:27:14.424Z,8.80
2023-03-26T01:30:24.533Z,9.01
2023-03-26T01:33:36.722Z,9.10
2023-03-26T01:36:46.918Z,8.92
2023-03-26T01:39:57.116Z,9.01
2023-03-26T01:43:08.882Z,9.14
2023-03-26T01:46:14.311Z,9.70
2023-03-26T01:49:18.618Z,9.82
2023-03-26T01:52:25.326Z,9.93
2023-03-26T01:55:38.334Z,10.19
2023-03-26T01:58:55.386Z,9.95
2023-03-26T02:02:04.941Z,10.26
2023-03-26T02:05:15.948Z,10.40
2023-03-26T02:08:23.653Z,9.94
2023-03-26T02:11:35.550Z,10.33
2023-03-26T02:14:38.066Z,10.27
2023-03-26T02:17:40.611Z,10.20
2023-03-26T02:20:42.718Z,10.51
2023-03-26T02:23:48.788Z,10.23
2023-03-26T02:26:52.380Z,10.54
2023-03-26T02:29:54.368Z,10.08
2023-03-26T02:32:59.543Z,9.95
2023-03-26T02:36:04.412Z,10.07
2023-03-26T02:39:06.422Z,9.84
2023-03-26T02:42:09.900Z,9.88
2023-03-26T02:45:11.847Z,9.63
2023-03-26T02:48:15.193Z,9.64
2023-03-26T02:51:18.372Z,10.06
2023-03-26T02:54:20.577Z,9.64
2023-03-26T02:57:24.228Z,9.65
2023-03-26T03:00:26.424Z,9.57
2023-03-26T03:03:30.237Z,9.53
2023-03-26T03:06:32.577Z,9.80
2023-03-26T03:09:34.881Z,10.08
2023-03-26T03:12:38.244Z,10.29
2023-03-26T03:15:40.181Z,10.07
2023-03-26T03:18:42.158Z,9.93
2023-03-26T03:21:44.174Z,9.68
2023-03-26T03:24:46.161Z,9.22
2023-03-26T03:27:50.419Z,8.61
2023-03-26T03:30:57.733Z,8.76
2023-03-26T03:33:59.694Z,8.52
2023-03-26T03:37:01.651Z,8.06
2023-03-26T03:40:07.822Z,7.88
2023-03-26T03:43:11.270Z,7.73
2023-03-26T03:46:13.523Z,8.05
2023-03-26T03:49:15.730Z,7.74
2023-03-26T03:52:18.312Z,8.01
2023-03-26T03:55:20.243Z,7.81
2023-03-26T03:58:25.060Z,7.94
2023-03-26T04:01:27.067Z,7.47
2023-03-26T04:04:29.078Z,7.74
2023-03-26T04:07:32.374Z,7.71
2023-03-26T04:10:34.356Z,7.86
2023-03-26T04:13:37.772Z,7.99
2023-03-26T04:16:39.728Z,8.05
2023-03-26T04:19:44.167Z,8.07
2023-03-26T04:22:46.846Z,8.14
2023-03-26T04:25:53.877Z,8.03
2023-03-26T04:29:01.092Z,7.93
2023-03-26T04:32:06.844Z,7.98
2023-03-26T04:35:13.163Z,7.96
2023-03-26T04:38:18.454Z,8.19
2023-03-26T04:41:22.375Z,8.21
2023-03-26T04:44:25.742Z,8.12
2023-03-26T04:47:29.179Z,8.04
2023-03-26T04:50:31.197Z,7.97
2023-03-26T04:53:34.331Z,8.36
2023-03-26T04:56:47.565Z,8.12
2023-03-26T04:59:51.547Z,8.50
2023-03-26T05:02:58.306Z,8.63
2023-03-26T05:06:01.588Z,8.41
2023-03-26T05:09:04.048Z,8.63
2023-03-26T05:12:06.325Z,8.84
2023-03-26T05:15:12.156Z,8.95
2023-03-26T05:18:14.414Z,9.20
2023-03-26T05:21:16.399Z,9.32
2023-03-26T05:24:19.787Z,9.69
2023-03-26T05:27:21.683Z,9.57
2023-03-26T05:30:25.587Z,9.74
2023-03-26T05:33:27.590Z,9.96
2023-03-26T05:36:30.639Z,10.07
2023-03-26T05:39:32.677Z,9.99
2023-03-26T05:42:34.618Z,10.23
2023-03-26T05:45:37.995Z,10.18
2023-03-26T05:48:40.431Z,10.35
2023-03-26T05:51:42.510Z,10.39
2023-03-26T05:54:44.585Z,10.66
2023-03-26T05:57:46.555Z,10.47
2023-03-26T06:00:58.535Z,11.14
2023-03-26T06:04:03.004Z,11.30
2023-03-26T06:07:05.091Z,10.97
2023-03-26T06:10:08.173Z,11.03
2023-03-26T06:13:10.477Z,11.14
2023-03-26T06:16:26.302Z,11.53
2023-03-26T06:19:30.254Z,11.37
2023-03-26T06:22:32.218Z,11.37
2023-03-26T06:25:34.190Z,11.46
2023-03-26T06:28:36.717Z,11.53
2023-03-26T06:31:40.684Z,11.59
2023-03-26T06:34:42.711Z,11.77
2023-03-26T06:37:44.821Z,12.36
2023-03-26T06:40:46.796Z,12.33
2023-03-26T06:43:48.742Z,12.46
2023-03-26T06:46:52.160Z,12.55
2023-03-26T06:49:54.135Z,12.77
2023-03-26T06:52:56.640Z,12.76
2023-03-26T06:55:58.565Z,13.20
2023-03-26T06:59:00.749Z,13.24
2023-03-26T07:02:04.385Z,13.21
2023-03-26T07:05:07.034Z,13.45
2023-03-26T07:08:09.062Z,13.95
2023-03-26T07:11:11.275Z,13.84
2023-03-26T07:14:17.734Z,14.10
2023-03-26T07:17:21.427Z,14.31
2023-03-26T07:20:24.333Z,14.31
2023-03-26T07:23:27.037Z,14.54
2023-03-26T07:26:38.690Z,14.49
2023-03-26T07:30:08.617Z,14.73
2023-03-26T07:33:18.906Z,15.10
2023-03-26T07:36:28.057Z,15.03
2023-03-26T07:39:43.104Z,15.12
2023-03-26T07:42:56.430Z,15.21
2023-03-26T07:45:59.141Z,15.27
2023-03-26T07:49:04.699Z,15.15
2023-03-26T07:52:06.767Z,15.36
2023-03-26T07:55:14.041Z,15.06
2023-03-26T07:58:31.453Z,14.94
2023-03-26T08:01:53.795Z,14.33
2023-03-26T08:05:10.674Z,12.81
2023-03-26T08:08:20.721Z,12.87
2023-03-26T08:11:34.354Z,12.68
2023-03-26T08:14:50.023Z,12.65
2023-03-26T08:17:58.016Z,12.64
2023-03-26T08:21:08.190Z,12.61
2023-03-26T08:24:23.026Z,12.21
2023-03-26T08:27:34.618Z,12.42
2023-03-26T08:30:37.058Z,12.69
2023-03-26T08:33:40.928Z,12.90
2023-03-26T08:36:44.655Z,13.88
2023-03-26T08:39:46.702Z,14.07
2023-03-26T08:43:16.886Z,14.62
2023-03-26T08:47:01.859Z,14.34
2023-03-26T08:50:35.291Z,14.53
2023-03-26T08:54:14.753Z,14.84
2023-03-26T08:57:43.155Z,14.83
2023-03-26T09:01:13.766Z,15.12
2023-03-26T09:04:54.488Z,13.64
2023-03-26T09:08:30.006Z,13.54
2023-03-26T09:12:02.054Z,13.97
2023-03-26T09:15:48.692Z,13.69
2023-03-26T09:19:26.057Z,13.56
2023-03-26T09:22:57.890Z,13.52
2023-03-26T09:26:25.481Z,13.46
2023-03-26T09:30:12.503Z,13.42
2023-03-26T09:33:54.322Z,13.70
2023-03-26T09:37:06.790Z,13.84
2023-03-26T09:40:16.591Z,13.62
2023-03-26T09:43:49.805Z,14.23
2023-03-26T09:47:22.599Z,14.55
2023-03-26T09:50:40.314Z,15.11
2023-03-26T09:53:57.010Z,15.15
2023-03-26T09:57:10.569Z,15.17
2023-03-26T10:00:28.557Z,15.47
2023-03-26T10:03:41.412Z,15.06
2023-03-26T10:06:54.590Z,14.52
2023-03-26T10:10:02.406Z,14.64
2023-03-26T10:13:16.393Z,14.32
2023-03-26T10:16:28.569Z,14.30
2023-03-26T10:19:43.692Z,14.60
2023-03-26T10:22:56.905Z,14.67
2023-03-26T10:26:09.801Z,14.87
2023-03-26T10:29:44.162Z,14.81
2023-03-26T10:32:54.524Z,14.33
2023-03-26T10:36:15.501Z,14.61
2023-03-26T10:39:48.743Z,14.93
2023-03-26T10:43:21.338Z,15.09
2023-03-26T10:46:40.295Z,15.12
2023-03-26T10:50:03.177Z,14.60
2023-03-26T10:53:12.709Z,14.77
2023-03-26T10:56:22.031Z,14.50
2023-03-26T10:59:27.760Z,14.63
2023-03-26T11:02:34.095Z,14.66
2023-03-26T11:05:49.399Z,15.12
2023-03-26T11:09:02.449Z,15.42
2023-03-26T11:12:25.593Z,15.05
2023-03-26T11:15:38.513Z,14.85
2023-03-26T11:18:48.015Z,15.21
2023-03-26T11:21:57.654Z,15.46
2023-03-26T11:25:34.347Z,16.60
2023-03-26T11:29:03.215Z,15.46
2023-03-26T11:32:11.137Z,15.72
2023-03-26T11:35:39.758Z,15.86
2023-03-26T11:38:47.009Z,15.72
2023-03-26T11:41:54.794Z,15.70
2023-03-26T11:45:04.101Z,16.12
2023-03-26T11:48:10.945Z,15.92
2023-03-26T11:51:20.781Z,16.11
2023-03-26T11:54:23.005Z,15.85
2023-03-26T11:57:33.460Z,15.52
2023-03-26T12:00:36.179Z,16.16
2023-03-26T12:03:40.810Z,16.27
2023-03-26T12:06:52.813Z,16.16
2023-03-26T12:09:58.214Z,15.98
2023-03-26T12:13:30.575Z,16.56
2023-03-26T12:16:32.796Z,16.25
2023-03-26T12:19:39.650Z,16.39
2023-03-26T12:22:47.879Z,16.20
2023-03-26T12:26:09.846Z,16.16
2023-03-26T12:29:15.119Z,16.35
2023-03-26T12:32:17.268Z,16.13
2023-03-26T12:35:26.882Z,16.94
2023-03-26T12:38:35.971Z,16.43
2023-03-26T12:43:40.206Z,16.40
2023-03-26T12:45:16.906Z,16.66
2023-03-26T12:48:19.740Z,16.31
2023-03-26T12:51:40.608Z,16.31
2023-03-26T12:54:51.194Z,16.46
2023-03-26T12:58:13.321Z,16.36
2023-03-26T13:01:26.822Z,16.58
2023-03-26T13:04:55.011Z,16.81
2023-03-26T13:08:26.360Z,17.19
2023-03-26T13:11:38.306Z,17.21
2023-03-26T13:15:03.560Z,17.61
2023-03-26T13:18:22.471Z,17.72
2023-03-26T13:21:37.190Z,18.08
2023-03-26T13:24:54.474Z,17.94
2023-03-26T13:28:10.975Z,17.88
2023-03-26T13:31:19.397Z,17.71
2023-03-26T13:34:33.884Z,17.79
2023-03-26T13:37:42.746Z,17.44
2023-03-26T13:40:57.844Z,17.75
2023-03-26T13:44:08.076Z,17.22
2023-03-26T13:47:16.817Z,17.14
2023-03-26T13:50:25.515Z,17.31
2023-03-26T13:53:35.426Z,18.09
2023-03-26T13:56:43.356Z,18.21
2023-03-26T13:59:51.302Z,17.81
2023-03-26T14:02:58.508Z,18.04
2023-03-26T14:06:08.817Z,18.30
2023-03-26T14:09:17.899Z,17.47
2023-03-26T14:12:31.857Z,17.55
2023-03-26T14:15:41.549Z,17.52
2023-03-26T14:18:49.586Z,17.08
2023-03-26T14:22:11.231Z,17.56
2023-03-26T14:25:32.830Z,17.27
2023-03-26T14:29:10.307Z,17.65
2023-03-26T14:32:24.901Z,17.48
2023-03-26T14:35:37.094Z,17.26
2023-03-26T14:39:05.454Z,17.39
2023-03-26T14:42:18.194Z,17.31
2023-03-26T14:46:00.079Z,17.27
2023-03-26T14:49:46.592Z,17.23
2023-03-26T14:52:51.602Z,17.15
2023-03-26T14:56:34.902Z,17.19
2023-03-26T15:00:07.590Z,17.37
2023-03-26T15:03:54.824Z,16.90
2023-03-26T15:07:39.054Z,16.76
2023-03-26T15:11:17.973Z,16.73
2023-03-26T15:14:56.266Z,17.04
2023-03-26T15:18:36.402Z,17.23
2023-03-26T15:22:17.276Z,17.23
2023-03-26T15:25:42.040Z,17.01
2023-03-26T15:29:05.904Z,16.59
2023-03-26T15:32:35.161Z,16.66
2023-03-26T15:36:01.387Z,16.21
2023-03-26T15:40:31.407Z,16.47
2023-03-26T15:44:24.390Z,15.93
2023-03-26T15:48:12.071Z,16.00
2023-03-26T15:51:31.635Z,16.24
2023-03-26T15:55:00.886Z,16.23
2023-03-26T15:58:13.699Z,15.94
2023-03-26T16:01:38.876Z,16.03
2023-03-26T16:04:50.360Z,16.24
2023-03-26T16:08:07.332Z,16.13
2023-03-26T16:11:12.861Z,15.70
2023-03-26T16:14:21.409Z,15.59
2023-03-26T16:17:25.384Z,15.68
2023-03-26T16:20:33.721Z,15.79
2023-03-26T16:23:54.207Z,15.81
2023-03-26T16:27:23.944Z,15.74
2023-03-26T16:30:30.399Z,15.59
2023-03-26T16:33:37.951Z,15.22
2023-03-26T16:36:44.351Z,15.40
2023-03-26T16:39:47.710Z,15.48
2023-03-26T16:42:55.567Z,15.47
2023-03-26T16:46:08.436Z,15.32
2023-03-26T16:49:22.681Z,14.81
2023-03-26T16:52:46.764Z,14.70
2023-03-26T16:55:57.203Z,14.45
2023-03-26T16:59:08.036Z,14.92
2023-03-26T17:02:21.871Z,14.57
2023-03-26T17:05:35.489Z,14.32
2023-03-26T17:08:49.800Z,14.79
2023-03-26T17:12:03.862Z,14.71
2023-03-26T17:15:27.019Z,14.58
2023-03-26T17:18:44.183Z,14.53
2023-03-26T17:21:56.734Z,14.30
2023-03-26T17:25:11.600Z,14.35
2023-03-26T17:28:28.270Z,14.26
2023-03-26T17:31:41.848Z,14.27
2023-03-26T17:34:59.878Z,14.18
2023-03-26T17:38:03.491Z,13.93
2023-03-26T17:41:15.878Z,14.09
2023-03-26T17:44:46.706Z,14.01
2023-03-26T17:47:54.514Z,13.98
2023-03-26T17:51:03.289Z,14.11
2023-03-26T17:54:15.315Z,13.93
2023-03-26T17:57:25.927Z,14.05
2023-03-26T18:00:32.955Z,14.39
2023-03-26T18:03:40.838Z,14.24
2023-03-26T18:07:05.307Z,14.18
2023-03-26T18:10:25.204Z,14.31
2023-03-26T18:14:02.947Z,14.50
2023-03-26T18:17:18.538Z,14.43
2023-03-26T18:20:27.177Z,14.34
2023-03-26T18:23:37.293Z,14.35
2023-03-26T18:26:44.073Z,14.72
2023-03-26T18:30:03.048Z,14.64
2023-03-26T18:33:14.263Z,14.62
2023-03-26T18:36:20.267Z,14.54
2023-03-26T18:39:24.853Z,14.73
2023-03-26T18:42:31.345Z,14.63
2023-03-26T18:45:43.694Z,14.51
2023-03-26T18:48:48.482Z,14.47
2023-03-26T18:51:57.500Z,14.29
2023-03-26T18:55:03.291Z,14.27
2023-03-26T18:58:22.468Z,14.04
2023-03-26T19:01:34.252Z,13.79
2023-03-26T19:04:38.716Z,13.85
2023-03-26T19:07:46.596Z,13.84
2023-03-26T19:10:50.943Z,13.90
2023-03-26T19:14:04.140Z,13.86
2023-03-26T19:17:09.544Z,14.01
2023-03-26T19:20:18.950Z,13.97
2023-03-26T19:23:27.229Z,14.09
2023-03-26T19:26:30.942Z,13.99
2023-03-26T19:29:36.348Z,13.84
2023-03-26T19:32:41.217Z,13.97
2023-03-26T19:35:47.339Z,13.90
2023-03-26T19:38:59.825Z,13.94
2023-03-26T19:42:05.252Z,13.98
2023-03-26T19:45:19.167Z,13.88
2023-03-26T19:48:45.661Z,13.64
2023-03-26T19:52:12.165Z,13.58
2023-03-26T19:55:23.155Z,13.59
2023-03-26T19:58:28.303Z,13.48
2023-03-26T20:01:32.343Z,13.31
2023-03-26T20:04:37.259Z,14.05
2023-03-26T20:07:40.383Z,14.42
2023-03-26T20:10:43.954Z,14.59
2023-03-26T20:13:47.311Z,14.67
2023-03-26T20:16:50.301Z,14.69
2023-03-26T20:19:54.479Z,14.61
2023-03-26T20:22:57.465Z,14.60
2023-03-26T20:26:06.774Z,14.49
2023-03-26T20:29:10.590Z,14.61
2023-03-26T20:32:19.983Z,14.53
2023-03-26T20:35:36.231Z,14.49
2023-03-26T20:38:40.384Z,14.56
2023-03-26T20:41:46.463Z,14.35
2023-03-26T20:44:51.636Z,13.94
2023-03-26T20:48:17.144Z,13.77
2023-03-26T20:51:21.486Z,13.64
2023-03-26T20:54:25.818Z,13.41
2023-03-26T20:57:28.080Z,13.62
2023-03-26T21:00:32.808Z,14.01
2023-03-26T21:03:34.845Z,14.09
2023-03-26T21:06:38.328Z,14.05
2023-03-26T21:09:41.200Z,13.90
2023-03-26T21:12:47.883Z,13.81
2023-03-26T21:15:50.443Z,13.85
2023-03-26T21:18:52.960Z,13.76
2023-03-26T21:22:03.553Z,13.63
2023-03-26T21:25:17.536Z,13.40
2023-03-26T21:28:39.815Z,13.02
2023-03-26T21:31:44.589Z,12.22
2023-03-26T21:34:57.519Z,12.02
2023-03-26T21:38:04.596Z,11.80
2023-03-26T21:41:07.790Z,11.68
2023-03-26T21:44:09.944Z,11.55
2023-03-26T21:47:12.673Z,11.62
2023-03-26T21:50:17.620Z,11.56
2023-03-26T21:53:22.645Z,11.56
2023-03-26T21:56:40.786Z,11.47
2023-03-26T21:59:49.870Z,11.51
2023-03-26T22:03:04.005Z,11.54
2023-03-26T22:06:13.601Z,11.56
2023-03-26T22:09:26.295Z,11.44
2023-03-26T22:12:28.678Z,11.44
2023-03-26T22:15:31.295Z,11.35
2023-03-26T22:18:33.665Z,11.32
2023-03-26T22:21:35.967Z,11.08
2023-03-26T22:24:39.197Z,11.20
2023-03-26T22:27:44.163Z,11.08
2023-03-26T22:30:46.819Z,10.94
2023-03-26T22:33:49.198Z,10.96
2023-03-26T22:36:52.512Z,10.91
2023-03-26T22:39:56.186Z,10.91
2023-03-26T22:42:58.067Z,10.88
2023-03-26T22:45:59.953Z,10.83
2023-03-26T22:49:01.922Z,10.76
2023-03-26T22:52:04.113Z,10.69
2023-03-26T22:55:09.000Z,10.74
2023-03-26T22:58:10.833Z,10.81
2023-03-26T23:01:16.870Z,10.70
2023-03-26T23:04:31.540Z,10.76
2023-03-26T23:07:34.172Z,10.76
2023-03-26T23:10:37.446Z,10.65
2023-03-26T23:13:39.831Z,10.62
2023-03-26T23:16:42.403Z,10.86
2023-03-26T23:19:44.599Z,10.84
2023-03-26T23:22:46.518Z,10.89
2023-03-26T23:25:50.129Z,10.90
2023-03-26T23:28:52.010Z,10.82
2023-03-26T23:31:54.687Z,10.90
2023-03-26T23:34:56.666Z,10.73
2023-03-26T23:38:02.203Z,10.83
2023-03-26T23:41:06.871Z,10.66
2023-03-26T23:44:13.652Z,10.56
2023-03-26T23:47:16.777Z,10.53
2023-03-26T23:50:18.764Z,10.38
2023-03-26T23:53:22.606Z,10.32
2023-03-26T23:56:27.828Z,10.65
2023-03-26T23:59:29.749Z,10.82
